Pagrindinis puslapis
METAR-TAF:

METAR-TAF

Oro uostai :

Jubail, Saudo Arabija

platuma: 27-02-20N, ilguma: 49-24-18E, Aukštis: 8 m

Dabartinis oras

Ataskaita buvo paskelbta 1 valandą ir 1 minutes, ne 10:00 UTC
Vėjas 18 kt iš Šiaurės Rytų
Temperatūra 23°C
Drėgmė 89%
Slėgis 1015 hPa
Matomumas 10 km arba daugiau
Su prošvaistėmis ne aukštis 6000 ft
Išsisklaidę debesys ne aukštis 4000 ft
Išsisklaidę debesys ne aukštis 3500 ft

METAR: OEJB 071000Z AUTO 04018KT 9999 BKN060 SCT040 SCT035 23/21 Q1015 NOSIG

Laikas: 14:01 (11:01 UTC)


TAF: trūkstamas

Orai ataskaitas ir orų prognozės (METAR, TAF).

turimą stotys yra geltonos ir raudonos taškus žemėlapyje.

Perkelti pele per norėdami pamatyti stoties vardą.

Tada spustelėkite, norėdami matyti oro stebėjimo ir prognozės.

Norėdami pakeisti žemėlapį: spustelėkite ant žalios mygtukų su juodo kryžiaus žemyn,; žalią mygtuką su brūkšneliu, jei norite nutolinti; arba žalių rodyklių gretimoms žemėlapius.


METAR-TAF: